sensor_id;sensor_type;location;lat;lon;timestamp;pressure;altitude;pressure_sealevel;temperature;humidity
47785;BME280;35233;55.686;37.848;2022-08-30T00:01:26;99059.84;;;24.57;52.42
47785;BME280;35233;55.686;37.848;2022-08-30T00:03:53;99047.78;;;24.52;53.29
47785;BME280;35233;55.686;37.848;2022-08-30T00:06:23;99052.75;;;24.56;52.94
47785;BME280;35233;55.686;37.848;2022-08-30T00:08:50;99041.13;;;24.56;52.87
47785;BME280;35233;55.686;37.848;2022-08-30T00:11:19;99036.56;;;24.56;53.17
47785;BME280;35233;55.686;37.848;2022-08-30T00:13:47;99038.53;;;24.54;53.53
47785;BME280;35233;55.686;37.848;2022-08-30T00:16:15;99035.84;;;24.54;53.20
47785;BME280;35233;55.686;37.848;2022-08-30T00:18:41;99029.75;;;24.52;53.02
47785;BME280;35233;55.686;37.848;2022-08-30T00:21:08;99043.09;;;24.54;53.37
47785;BME280;35233;55.686;37.848;2022-08-30T00:23:34;99046.38;;;24.48;53.44
47785;BME280;35233;55.686;37.848;2022-08-30T00:26:00;99038.13;;;24.39;53.56
47785;BME280;35233;55.686;37.848;2022-08-30T00:28:27;99045.09;;;24.42;53.22
47785;BME280;35233;55.686;37.848;2022-08-30T00:30:52;99048.69;;;24.43;53.60
47785;BME280;35233;55.686;37.848;2022-08-30T00:33:18;99050.22;;;24.45;53.40
47785;BME280;35233;55.686;37.848;2022-08-30T00:35:43;99047.09;;;24.40;53.27
47785;BME280;35233;55.686;37.848;2022-08-30T00:38:10;99038.59;;;24.45;53.39
47785;BME280;35233;55.686;37.848;2022-08-30T00:40:36;99032.34;;;24.44;53.52
47785;BME280;35233;55.686;37.848;2022-08-30T00:43:06;99036.91;;;24.44;53.27
47785;BME280;35233;55.686;37.848;2022-08-30T00:45:35;99034.28;;;24.42;53.25
47785;BME280;35233;55.686;37.848;2022-08-30T00:48:01;99032.91;;;24.38;53.92
47785;BME280;35233;55.686;37.848;2022-08-30T00:50:32;99031.75;;;24.40;53.45
47785;BME280;35233;55.686;37.848;2022-08-30T00:53:00;99038.84;;;24.42;53.99
47785;BME280;35233;55.686;37.848;2022-08-30T00:55:26;99033.44;;;24.42;53.50
47785;BME280;35233;55.686;37.848;2022-08-30T00:57:56;99025.66;;;24.38;53.18
47785;BME280;35233;55.686;37.848;2022-08-30T01:00:23;99018.69;;;24.36;54.02
47785;BME280;35233;55.686;37.848;2022-08-30T01:02:49;99027.22;;;24.41;53.93
47785;BME280;35233;55.686;37.848;2022-08-30T01:05:15;99033.44;;;24.42;53.72
47785;BME280;35233;55.686;37.848;2022-08-30T01:07:41;99017.84;;;24.35;53.96
47785;BME280;35233;55.686;37.848;2022-08-30T01:10:08;99018.41;;;24.39;53.51
47785;BME280;35233;55.686;37.848;2022-08-30T01:12:37;99023.94;;;24.37;53.88
47785;BME280;35233;55.686;37.848;2022-08-30T01:15:04;99025.78;;;24.37;54.71
47785;BME280;35233;55.686;37.848;2022-08-30T01:17:31;99025.22;;;24.33;54.25
47785;BME280;35233;55.686;37.848;2022-08-30T01:20:19;99024.94;;;24.36;53.90
47785;BME280;35233;55.686;37.848;2022-08-30T01:25:17;99024.81;;;24.38;53.90
47785;BME280;35233;55.686;37.848;2022-08-30T01:27:49;99022.22;;;24.36;54.34
47785;BME280;35233;55.686;37.848;2022-08-30T01:30:17;99020.69;;;24.34;54.18
47785;BME280;35233;55.686;37.848;2022-08-30T01:32:45;99010.16;;;24.31;54.14
47785;BME280;35233;55.686;37.848;2022-08-30T01:35:14;99017.28;;;24.32;54.42
47785;BME280;35233;55.686;37.848;2022-08-30T01:37:43;99018.97;;;24.33;54.59
47785;BME280;35233;55.686;37.848;2022-08-30T01:40:11;99007.47;;;24.31;53.97
47785;BME280;35233;55.686;37.848;2022-08-30T01:42:37;99012.03;;;24.30;54.02
47785;BME280;35233;55.686;37.848;2022-08-30T01:45:04;98997.97;;;24.27;54.47
47785;BME280;35233;55.686;37.848;2022-08-30T01:47:30;98996.84;;;24.29;53.99
47785;BME280;35233;55.686;37.848;2022-08-30T01:49:56;99010.34;;;24.29;54.39
47785;BME280;35233;55.686;37.848;2022-08-30T01:52:22;98995.13;;;24.28;54.50
47785;BME280;35233;55.686;37.848;2022-08-30T01:54:48;99008.63;;;24.28;54.23
47785;BME280;35233;55.686;37.848;2022-08-30T01:57:16;99007.22;;;24.24;54.34
47785;BME280;35233;55.686;37.848;2022-08-30T01:59:43;99014.47;;;24.14;55.22
47785;BME280;35233;55.686;37.848;2022-08-30T02:02:17;99021.88;;;24.12;55.08
47785;BME280;35233;55.686;37.848;2022-08-30T02:04:44;99009.41;;;24.01;55.49
47785;BME280;35233;55.686;37.848;2022-08-30T02:07:11;99019.91;;;24.04;55.40
47785;BME280;35233;55.686;37.848;2022-08-30T02:09:36;99022.59;;;24.04;54.96
47785;BME280;35233;55.686;37.848;2022-08-30T02:12:04;99014.22;;;23.98;55.75
47785;BME280;35233;55.686;37.848;2022-08-30T02:14:32;99017.34;;;23.93;55.64
47785;BME280;35233;55.686;37.848;2022-08-30T02:16:58;99020.59;;;23.97;55.38
47785;BME280;35233;55.686;37.848;2022-08-30T02:19:24;99017.63;;;24.00;55.25
47785;BME280;35233;55.686;37.848;2022-08-30T02:21:49;99007.13;;;23.97;54.70
47785;BME280;35233;55.686;37.848;2022-08-30T02:24:15;99013.78;;;24.02;55.15
47785;BME280;35233;55.686;37.848;2022-08-30T02:26:40;99011.81;;;24.04;55.22
47785;BME280;35233;55.686;37.848;2022-08-30T02:29:07;99012.50;;;24.06;54.74
47785;BME280;35233;55.686;37.848;2022-08-30T02:31:32;99016.19;;;24.05;54.59
47785;BME280;35233;55.686;37.848;2022-08-30T02:33:58;99017.06;;;24.06;54.50
47785;BME280;35233;55.686;37.848;2022-08-30T02:36:24;99017.91;;;24.06;55.03
47785;BME280;35233;55.686;37.848;2022-08-30T02:38:50;99014.91;;;24.09;54.84
47785;BME280;35233;55.686;37.848;2022-08-30T02:41:17;99011.50;;;24.07;54.54
47785;BME280;35233;55.686;37.848;2022-08-30T02:43:43;99016.38;;;23.94;55.40
47785;BME280;35233;55.686;37.848;2022-08-30T02:46:08;99017.09;;;23.86;56.01
47785;BME280;35233;55.686;37.848;2022-08-30T02:48:35;99019.63;;;23.78;56.16
47785;BME280;35233;55.686;37.848;2022-08-30T02:51:12;99018.38;;;23.72;56.23
47785;BME280;35233;55.686;37.848;2022-08-30T02:53:39;99023.91;;;23.71;56.49
47785;BME280;35233;55.686;37.848;2022-08-30T02:56:05;99040.38;;;23.78;55.70
47785;BME280;35233;55.686;37.848;2022-08-30T02:58:31;99035.81;;;23.78;55.67
47785;BME280;35233;55.686;37.848;2022-08-30T03:00:56;99027.00;;;23.76;55.86
47785;BME280;35233;55.686;37.848;2022-08-30T03:03:22;99020.34;;;23.80;55.52
47785;BME280;35233;55.686;37.848;2022-08-30T03:05:47;99029.44;;;23.89;55.84
47785;BME280;35233;55.686;37.848;2022-08-30T03:08:13;99028.00;;;23.94;54.90
47785;BME280;35233;55.686;37.848;2022-08-30T03:10:39;99030.41;;;23.98;55.20
47785;BME280;35233;55.686;37.848;2022-08-30T03:13:05;99025.59;;;24.01;54.86
47785;BME280;35233;55.686;37.848;2022-08-30T03:15:33;99039.50;;;24.06;54.85
47785;BME280;35233;55.686;37.848;2022-08-30T03:17:59;99034.69;;;24.00;55.19
47785;BME280;35233;55.686;37.848;2022-08-30T03:20:26;99034.69;;;24.00;55.34
47785;BME280;35233;55.686;37.848;2022-08-30T03:22:52;99037.22;;;24.02;55.05
47785;BME280;35233;55.686;37.848;2022-08-30T03:25:18;99022.72;;;24.03;55.09
47785;BME280;35233;55.686;37.848;2022-08-30T03:27:45;99028.41;;;24.09;54.74
47785;BME280;35233;55.686;37.848;2022-08-30T03:30:11;99026.41;;;24.11;55.08
47785;BME280;35233;55.686;37.848;2022-08-30T03:32:37;99023.44;;;24.14;54.68
47785;BME280;35233;55.686;37.848;2022-08-30T03:35:03;99036.06;;;24.14;54.47
47785;BME280;35233;55.686;37.848;2022-08-30T03:37:29;99032.78;;;24.20;54.83
47785;BME280;35233;55.686;37.848;2022-08-30T03:39:55;99027.53;;;24.18;54.41
47785;BME280;35233;55.686;37.848;2022-08-30T03:42:21;99033.91;;;24.27;54.54
47785;BME280;35233;55.686;37.848;2022-08-30T03:44:47;99021.13;;;24.29;54.67
47785;BME280;35233;55.686;37.848;2022-08-30T03:47:12;99031.47;;;24.34;54.18
47785;BME280;35233;55.686;37.848;2022-08-30T03:49:38;99028.34;;;24.38;53.83
47785;BME280;35233;55.686;37.848;2022-08-30T03:52:04;99028.91;;;24.42;54.05
47785;BME280;35233;55.686;37.848;2022-08-30T03:54:30;99025.22;;;24.43;53.68
47785;BME280;35233;55.686;37.848;2022-08-30T03:56:55;99029.34;;;24.47;53.65
47785;BME280;35233;55.686;37.848;2022-08-30T03:59:21;99025.63;;;24.48;53.71
47785;BME280;35233;55.686;37.848;2022-08-30T04:01:47;99029.34;;;24.47;53.72
47785;BME280;35233;55.686;37.848;2022-08-30T04:04:14;99023.78;;;24.49;53.56
47785;BME280;35233;55.686;37.848;2022-08-30T04:06:39;99024.06;;;24.46;54.01
47785;BME280;35233;55.686;37.848;2022-08-30T04:09:05;99027.78;;;24.35;54.17
47785;BME280;35233;55.686;37.848;2022-08-30T04:11:31;99027.50;;;24.38;53.90
47785;BME280;35233;55.686;37.848;2022-08-30T04:13:57;99036.16;;;24.42;54.07
47785;BME280;35233;55.686;37.848;2022-08-30T04:16:23;99037.41;;;24.37;54.14
47785;BME280;35233;55.686;37.848;2022-08-30T04:18:49;99031.22;;;24.27;54.80
47785;BME280;35233;55.686;37.848;2022-08-30T04:21:15;99044.25;;;24.42;54.18
47785;BME280;35233;55.686;37.848;2022-08-30T04:23:41;99047.53;;;24.45;53.87
47785;BME280;35233;55.686;37.848;2022-08-30T04:26:08;99041.00;;;24.38;54.22
47785;BME280;35233;55.686;37.848;2022-08-30T04:28:34;99036.03;;;24.43;53.99
47785;BME280;35233;55.686;37.848;2022-08-30T04:31:06;99031.56;;;24.61;53.30
47785;BME280;35233;55.686;37.848;2022-08-30T04:33:33;99032.84;;;24.57;53.42
47785;BME280;35233;55.686;37.848;2022-08-30T04:36:01;99040.66;;;24.60;53.79
47785;BME280;35233;55.686;37.848;2022-08-30T04:38:29;99032.16;;;24.55;54.07
47785;BME280;35233;55.686;37.848;2022-08-30T04:40:55;99044.25;;;24.42;54.08
47785;BME280;35233;55.686;37.848;2022-08-30T04:43:21;99035.88;;;24.45;54.52
47785;BME280;35233;55.686;37.848;2022-08-30T04:45:48;99022.66;;;24.42;53.92
47785;BME280;35233;55.686;37.848;2022-08-30T04:48:14;99042.22;;;24.63;53.63
47785;BME280;35233;55.686;37.848;2022-08-30T04:50:42;99032.91;;;24.75;53.25
47785;BME280;35233;55.686;37.848;2022-08-30T04:53:07;99021.44;;;24.63;53.27
47785;BME280;35233;55.686;37.848;2022-08-30T04:55:33;99026.00;;;24.63;53.58
47785;BME280;35233;55.686;37.848;2022-08-30T04:57:58;99031.16;;;24.56;53.90
47785;BME280;35233;55.686;37.848;2022-08-30T05:00:25;99022.47;;;24.62;53.29
47785;BME280;35233;55.686;37.848;2022-08-30T05:02:51;99032.03;;;24.84;52.60
47785;BME280;35233;55.686;37.848;2022-08-30T05:05:17;99036.94;;;24.99;52.79
47785;BME280;35233;55.686;37.848;2022-08-30T05:08:01;99029.31;;;25.12;52.11
47785;BME280;35233;55.686;37.848;2022-08-30T05:10:27;99028.38;;;25.03;52.46
47785;BME280;35233;55.686;37.848;2022-08-30T05:12:53;99032.31;;;25.09;52.25
47785;BME280;35233;55.686;37.848;2022-08-30T05:15:19;99028.75;;;25.18;52.17
47785;BME280;35233;55.686;37.848;2022-08-30T05:17:46;99034.84;;;25.20;51.93
47785;BME280;35233;55.686;37.848;2022-08-30T05:20:12;99028.13;;;25.24;51.94
47785;BME280;35233;55.686;37.848;2022-08-30T05:22:40;99035.31;;;25.34;51.47
47785;BME280;35233;55.686;37.848;2022-08-30T05:25:06;99031.66;;;25.52;50.89
47785;BME280;35233;55.686;37.848;2022-08-30T05:27:32;99031.41;;;25.46;51.33
47785;BME280;35233;55.686;37.848;2022-08-30T05:29:58;99039.53;;;25.46;51.35
47785;BME280;35233;55.686;37.848;2022-08-30T05:32:23;99038.03;;;25.34;51.75
47785;BME280;35233;55.686;37.848;2022-08-30T05:34:49;99042.00;;;25.12;52.53
47785;BME280;35233;55.686;37.848;2022-08-30T05:37:15;99039.97;;;25.23;51.90
47785;BME280;35233;55.686;37.848;2022-08-30T05:39:40;99036.44;;;25.41;51.48
47785;BME280;35233;55.686;37.848;2022-08-30T05:42:06;99042.38;;;25.44;51.12
47785;BME280;35233;55.686;37.848;2022-08-30T05:44:31;99027.75;;;25.19;51.61
47785;BME280;35233;55.686;37.848;2022-08-30T05:46:57;99048.16;;;25.32;51.61
47785;BME280;35233;55.686;37.848;2022-08-30T05:49:22;99042.16;;;25.38;51.87
47785;BME280;35233;55.686;37.848;2022-08-30T05:51:48;99035.88;;;25.37;51.51
47785;BME280;35233;55.686;37.848;2022-08-30T05:54:14;99047.94;;;25.43;51.20
47785;BME280;35233;55.686;37.848;2022-08-30T05:56:42;99044.00;;;25.37;51.60
47785;BME280;35233;55.686;37.848;2022-08-30T05:59:10;99044.38;;;25.42;50.93
47785;BME280;35233;55.686;37.848;2022-08-30T06:01:40;99039.75;;;25.35;51.49
47785;BME280;35233;55.686;37.848;2022-08-30T06:04:08;99043.53;;;25.42;51.37
47785;BME280;35233;55.686;37.848;2022-08-30T06:06:35;99048.88;;;25.51;50.89
47785;BME280;35233;55.686;37.848;2022-08-30T06:09:03;99046.31;;;25.50;50.84
47785;BME280;35233;55.686;37.848;2022-08-30T06:11:28;99043.31;;;25.53;50.54
47785;BME280;35233;55.686;37.848;2022-08-30T06:13:55;99044.84;;;25.56;50.71
47785;BME280;35233;55.686;37.848;2022-08-30T06:16:22;99049.44;;;25.55;50.77
47785;BME280;35233;55.686;37.848;2022-08-30T06:18:49;99049.94;;;25.41;50.56
47785;BME280;35233;55.686;37.848;2022-08-30T06:21:28;99063.09;;;25.53;50.54
47785;BME280;35233;55.686;37.848;2022-08-30T06:23:55;99049.66;;;25.62;50.54
47785;BME280;35233;55.686;37.848;2022-08-30T06:26:21;99052.56;;;25.68;50.24
47785;BME280;35233;55.686;37.848;2022-08-30T06:28:46;99053.28;;;25.70;50.12
47785;BME280;35233;55.686;37.848;2022-08-30T06:31:14;99054.13;;;25.71;49.61
47785;BME280;35233;55.686;37.848;2022-08-30T06:33:40;99049.94;;;25.77;49.80
47785;BME280;35233;55.686;37.848;2022-08-30T06:36:09;99053.78;;;25.84;49.26
47785;BME280;35233;55.686;37.848;2022-08-30T06:38:35;99062.19;;;25.81;49.58
47785;BME280;35233;55.686;37.848;2022-08-30T06:41:11;99057.41;;;25.74;49.47
47785;BME280;35233;55.686;37.848;2022-08-30T06:43:37;99059.47;;;25.81;49.38
47785;BME280;35233;55.686;37.848;2022-08-30T06:46:04;99067.47;;;25.82;49.05
47785;BME280;35233;55.686;37.848;2022-08-30T06:48:30;99063.38;;;25.96;48.74
47785;BME280;35233;55.686;37.848;2022-08-30T06:50:55;99071.94;;;25.91;49.00
47785;BME280;35233;55.686;37.848;2022-08-30T06:53:21;99068.75;;;25.78;48.88
47785;BME280;35233;55.686;37.848;2022-08-30T06:55:57;99061.72;;;25.85;48.67
47785;BME280;35233;55.686;37.848;2022-08-30T06:58:23;99058.69;;;26.06;48.39
47785;BME280;35233;55.686;37.848;2022-08-30T07:00:49;99060.19;;;26.01;48.35
47785;BME280;35233;55.686;37.848;2022-08-30T07:03:15;99058.56;;;26.08;48.35
47785;BME280;35233;55.686;37.848;2022-08-30T07:05:40;99063.81;;;26.09;48.28
47785;BME280;35233;55.686;37.848;2022-08-30T07:08:06;99055.91;;;26.16;48.27
47785;BME280;35233;55.686;37.848;2022-08-30T07:10:32;99062.16;;;26.16;47.79
47785;BME280;35233;55.686;37.848;2022-08-30T07:12:57;99060.00;;;26.20;47.77
47785;BME280;35233;55.686;37.848;2022-08-30T07:15:23;99055.09;;;26.24;47.63
47785;BME280;35233;55.686;37.848;2022-08-30T07:17:48;99062.00;;;26.44;46.99
47785;BME280;35233;55.686;37.848;2022-08-30T07:20:32;99047.78;;;26.60;47.07
47785;BME280;35233;55.686;37.848;2022-08-30T07:22:58;99056.59;;;26.62;46.68
47785;BME280;35233;55.686;37.848;2022-08-30T07:25:23;99055.38;;;26.56;46.91
47785;BME280;35233;55.686;37.848;2022-08-30T07:27:49;99044.56;;;26.64;46.69
47785;BME280;35233;55.686;37.848;2022-08-30T07:30:16;99053.72;;;26.63;46.43
47785;BME280;35233;55.686;37.848;2022-08-30T07:32:43;99055.69;;;26.53;46.48
47785;BME280;35233;55.686;37.848;2022-08-30T07:35:09;99058.22;;;26.55;46.27
47785;BME280;35233;55.686;37.848;2022-08-30T07:37:34;99056.13;;;26.49;46.58
47785;BME280;35233;55.686;37.848;2022-08-30T07:40:01;99059.78;;;26.57;46.70
47785;BME280;35233;55.686;37.848;2022-08-30T07:42:27;99061.47;;;26.58;46.74
47785;BME280;35233;55.686;37.848;2022-08-30T07:44:52;99056.88;;;26.51;46.46
47785;BME280;35233;55.686;37.848;2022-08-30T07:47:18;99063.88;;;26.43;46.98
47785;BME280;35233;55.686;37.848;2022-08-30T07:49:43;99062.50;;;26.39;46.63
47785;BME280;35233;55.686;37.848;2022-08-30T07:52:09;99065.75;;;26.43;46.50
47785;BME280;35233;55.686;37.848;2022-08-30T07:54:34;99069.16;;;26.45;46.14
47785;BME280;35233;55.686;37.848;2022-08-30T07:57:00;99069.91;;;26.55;46.46
47785;BME280;35233;55.686;37.848;2022-08-30T07:59:26;99059.06;;;26.55;46.31
47785;BME280;35233;55.686;37.848;2022-08-30T08:05:08;99070.78;;;26.56;45.94
47785;BME280;35233;55.686;37.848;2022-08-30T08:07:34;99063.13;;;26.51;46.46
47785;BME280;35233;55.686;37.848;2022-08-30T08:10:00;99065.22;;;26.39;46.61
47785;BME280;35233;55.686;37.848;2022-08-30T08:12:26;99069.56;;;26.50;46.71
47785;BME280;35233;55.686;37.848;2022-08-30T08:14:57;99073.97;;;26.51;45.95
47785;BME280;35233;55.686;37.848;2022-08-30T08:17:23;99063.28;;;26.50;46.39
47785;BME280;35233;55.686;37.848;2022-08-30T08:19:48;99068.22;;;26.54;46.39
47785;BME280;35233;55.686;37.848;2022-08-30T08:22:14;99060.16;;;26.62;46.21
47785;BME280;35233;55.686;37.848;2022-08-30T08:24:39;99066.97;;;26.75;45.87
47785;BME280;35233;55.686;37.848;2022-08-30T08:27:05;99066.84;;;26.84;45.89
47785;BME280;35233;55.686;37.848;2022-08-30T08:29:30;99053.81;;;26.80;45.73
47785;BME280;35233;55.686;37.848;2022-08-30T08:31:56;99052.41;;;26.76;45.31
47785;BME280;35233;55.686;37.848;2022-08-30T08:34:22;99062.97;;;26.87;45.79
47785;BME280;35233;55.686;37.848;2022-08-30T08:36:51;99061.97;;;26.88;46.08
47785;BME280;35233;55.686;37.848;2022-08-30T08:39:17;99061.53;;;27.01;45.82
47785;BME280;35233;55.686;37.848;2022-08-30T08:44:47;99067.06;;;27.17;45.36
47785;BME280;35233;55.686;37.848;2022-08-30T08:47:25;99057.91;;;27.18;45.34
47785;BME280;35233;55.686;37.848;2022-08-30T08:49:56;99063.75;;;27.14;44.98
47785;BME280;35233;55.686;37.848;2022-08-30T08:52:28;99063.06;;;27.03;45.24
47785;BME280;35233;55.686;37.848;2022-08-30T08:55:27;99067.66;;;27.11;45.45
47785;BME280;35233;55.686;37.848;2022-08-30T08:57:55;99063.75;;;27.14;45.42
47785;BME280;35233;55.686;37.848;2022-08-30T09:00:20;99064.50;;;27.16;44.96
47785;BME280;35233;55.686;37.848;2022-08-30T09:02:54;99071.22;;;27.12;45.00
47785;BME280;35233;55.686;37.848;2022-08-30T09:05:22;99069.91;;;27.16;44.52
47785;BME280;35233;55.686;37.848;2022-08-30T09:08:09;99073.25;;;27.09;45.02
47785;BME280;35233;55.686;37.848;2022-08-30T09:10:36;99080.59;;;27.17;44.79
47785;BME280;35233;55.686;37.848;2022-08-30T09:13:02;99078.50;;;27.11;45.06
47785;BME280;35233;55.686;37.848;2022-08-30T09:15:30;99078.16;;;27.06;43.97
47785;BME280;35233;55.686;37.848;2022-08-30T09:18:02;99072.00;;;26.96;43.97
47785;BME280;35233;55.686;37.848;2022-08-30T09:20:36;99072.22;;;27.02;43.96
47785;BME280;35233;55.686;37.848;2022-08-30T09:23:25;99078.91;;;26.90;43.34
47785;BME280;35233;55.686;37.848;2022-08-30T09:26:06;99082.03;;;27.03;44.04
47785;BME280;35233;55.686;37.848;2022-08-30T09:28:36;99080.16;;;27.04;43.68
47785;BME280;35233;55.686;37.848;2022-08-30T09:34:07;99086.38;;;27.22;43.43
47785;BME280;35233;55.686;37.848;2022-08-30T09:36:39;99082.28;;;27.18;43.46
47785;BME280;35233;55.686;37.848;2022-08-30T09:39:14;99072.91;;;27.13;43.06
47785;BME280;35233;55.686;37.848;2022-08-30T09:41:44;99073.25;;;27.09;43.13
47785;BME280;35233;55.686;37.848;2022-08-30T09:44:18;99079.41;;;27.20;43.15
47785;BME280;35233;55.686;37.848;2022-08-30T09:46:54;99087.25;;;27.31;43.02
47785;BME280;35233;55.686;37.848;2022-08-30T10:00:22;99083.53;;;27.32;42.39
47785;BME280;35233;55.686;37.848;2022-08-30T10:10:54;99078.84;;;27.50;42.16
47785;BME280;35233;55.686;37.848;2022-08-30T10:19:02;99078.28;;;27.39;41.80
47785;BME280;35233;55.686;37.848;2022-08-30T10:21:41;99070.69;;;27.50;41.74
47785;BME280;35233;55.686;37.848;2022-08-30T10:24:13;99073.25;;;27.52;41.78
47785;BME280;35233;55.686;37.848;2022-08-30T10:26:54;99077.47;;;27.54;41.81
47785;BME280;35233;55.686;37.848;2022-08-30T10:32:09;99084.25;;;27.50;41.89
47785;BME280;35233;55.686;37.848;2022-08-30T10:34:39;99084.25;;;27.50;41.57
47785;BME280;35233;55.686;37.848;2022-08-30T10:37:09;99080.72;;;27.66;41.21
47785;BME280;35233;55.686;37.848;2022-08-30T10:39:46;99077.69;;;27.77;41.17
47785;BME280;35233;55.686;37.848;2022-08-30T10:42:25;99072.50;;;27.84;41.12
47785;BME280;35233;55.686;37.848;2022-08-30T10:47:28;99072.84;;;27.81;40.51
47785;BME280;35233;55.686;37.848;2022-08-30T10:50:13;99074.50;;;27.82;40.53
47785;BME280;35233;55.686;37.848;2022-08-30T10:52:49;99083.34;;;27.92;40.01
47785;BME280;35233;55.686;37.848;2022-08-30T10:55:23;99065.53;;;28.06;39.93
47785;BME280;35233;55.686;37.848;2022-08-30T10:57:50;99072.84;;;28.14;39.97
47785;BME280;35233;55.686;37.848;2022-08-30T11:00:26;99064.00;;;28.04;39.48
47785;BME280;35233;55.686;37.848;2022-08-30T11:05:59;99076.75;;;27.87;40.14
47785;BME280;35233;55.686;37.848;2022-08-30T11:12:50;99071.31;;;27.87;39.56
47785;BME280;35233;55.686;37.848;2022-08-30T11:14:49;99070.28;;;27.96;39.79
47785;BME280;35233;55.686;37.848;2022-08-30T11:17:28;99061.28;;;28.04;39.81
47785;BME280;35233;55.686;37.848;2022-08-30T11:19:57;99064.69;;;28.06;39.85
47785;BME280;35233;55.686;37.848;2022-08-30T11:22:33;99063.84;;;28.05;40.05
47785;BME280;35233;55.686;37.848;2022-08-30T11:33:07;99056.19;;;28.01;40.16
47785;BME280;35233;55.686;37.848;2022-08-30T11:35:51;99055.84;;;28.04;40.20
47785;BME280;35233;55.686;37.848;2022-08-30T11:41:12;99053.81;;;28.14;40.18
47785;BME280;35233;55.686;37.848;2022-08-30T12:02:03;99055.84;;;28.36;38.94
47785;BME280;35233;55.686;37.848;2022-08-30T12:04:44;99043.63;;;28.32;38.47
47785;BME280;35233;55.686;37.848;2022-08-30T12:10:34;99054.16;;;28.52;37.84
47785;BME280;35233;55.686;37.848;2022-08-30T12:13:00;99053.31;;;28.51;38.05
47785;BME280;35233;55.686;37.848;2022-08-30T12:15:50;99036.66;;;28.54;37.57
47785;BME280;35233;55.686;37.848;2022-08-30T12:18:23;99034.94;;;28.53;38.44
47785;BME280;35233;55.686;37.848;2022-08-30T12:20:55;99031.38;;;28.53;38.51
47785;BME280;35233;55.686;37.848;2022-08-30T12:23:45;99027.31;;;28.49;38.73
47785;BME280;35233;55.686;37.848;2022-08-30T12:26:17;99030.75;;;28.42;37.48
47785;BME280;35233;55.686;37.848;2022-08-30T12:28:44;99031.06;;;28.39;38.06
47785;BME280;35233;55.686;37.848;2022-08-30T12:31:18;99021.53;;;28.35;37.56
47785;BME280;35233;55.686;37.848;2022-08-30T12:33:47;99036.16;;;28.42;38.11
47785;BME280;35233;55.686;37.848;2022-08-30T12:39:34;99028.16;;;28.49;35.44
47785;BME280;35233;55.686;37.848;2022-08-30T12:42:10;99022.22;;;28.54;37.22
47785;BME280;35233;55.686;37.848;2022-08-30T12:44:39;99027.13;;;28.58;36.19
47785;BME280;35233;55.686;37.848;2022-08-30T12:47:06;99023.06;;;28.62;36.09
47785;BME280;35233;55.686;37.848;2022-08-30T12:49:35;99020.63;;;28.67;36.54
47785;BME280;35233;55.686;37.848;2022-08-30T12:54:44;99023.81;;;28.79;35.77
47785;BME280;35233;55.686;37.848;2022-08-30T12:57:11;99018.03;;;28.82;35.42
47785;BME280;35233;55.686;37.848;2022-08-30T12:59:49;99011.09;;;28.80;35.06
47785;BME280;35233;55.686;37.848;2022-08-30T13:04:44;99006.91;;;28.61;34.70
47785;BME280;35233;55.686;37.848;2022-08-30T13:07:23;98983.47;;;28.60;35.43
47785;BME280;35233;55.686;37.848;2022-08-30T13:09:49;99005.13;;;28.84;35.10
47785;BME280;35233;55.686;37.848;2022-08-30T13:12:26;98996.72;;;28.94;35.44
47785;BME280;35233;55.686;37.848;2022-08-30T13:14:52;98996.56;;;28.96;35.22
47785;BME280;35233;55.686;37.848;2022-08-30T13:20:06;98997.91;;;29.00;35.27
47785;BME280;35233;55.686;37.848;2022-08-30T13:22:32;99000.63;;;29.00;35.18
47785;BME280;35233;55.686;37.848;2022-08-30T13:24:59;98999.63;;;29.01;34.87
47785;BME280;35233;55.686;37.848;2022-08-30T13:27:26;98994.22;;;28.93;35.41
47785;BME280;35233;55.686;37.848;2022-08-30T13:29:53;99001.72;;;28.82;35.46
47785;BME280;35233;55.686;37.848;2022-08-30T13:32:19;99001.59;;;28.76;35.60
47785;BME280;35233;55.686;37.848;2022-08-30T13:34:45;99000.75;;;28.67;35.72
47785;BME280;35233;55.686;37.848;2022-08-30T13:37:22;98989.22;;;28.65;35.71
47785;BME280;35233;55.686;37.848;2022-08-30T13:39:48;98995.34;;;28.59;36.17
47785;BME280;35233;55.686;37.848;2022-08-30T13:42:13;98989.78;;;28.52;36.15
47785;BME280;35233;55.686;37.848;2022-08-30T13:44:40;99004.91;;;28.47;36.12
47785;BME280;35233;55.686;37.848;2022-08-30T13:47:06;98993.84;;;28.40;36.24
47785;BME280;35233;55.686;37.848;2022-08-30T13:49:34;98995.22;;;28.36;36.42
47785;BME280;35233;55.686;37.848;2022-08-30T13:52:05;98993.19;;;28.30;36.36
47785;BME280;35233;55.686;37.848;2022-08-30T13:54:30;98997.63;;;28.31;36.43
47785;BME280;35233;55.686;37.848;2022-08-30T13:56:56;98995.38;;;28.51;36.01
47785;BME280;35233;55.686;37.848;2022-08-30T13:59:22;98986.28;;;28.83;34.55
47785;BME280;35233;55.686;37.848;2022-08-30T14:01:49;98983.09;;;29.10;34.20
47785;BME280;35233;55.686;37.848;2022-08-30T14:04:15;98981.81;;;29.29;33.68
47785;BME280;35233;55.686;37.848;2022-08-30T14:06:41;98980.41;;;29.33;33.53
47785;BME280;35233;55.686;37.848;2022-08-30T14:09:07;98986.22;;;29.30;32.55
47785;BME280;35233;55.686;37.848;2022-08-30T14:11:35;98977.38;;;29.28;32.99
47785;BME280;35233;55.686;37.848;2022-08-30T14:14:01;98974.19;;;29.48;32.98
47785;BME280;35233;55.686;37.848;2022-08-30T14:16:27;98975.13;;;29.63;32.25
47785;BME280;35233;55.686;37.848;2022-08-30T14:18:53;98964.75;;;29.59;32.37
47785;BME280;35233;55.686;37.848;2022-08-30T14:21:18;98951.50;;;29.55;31.40
47785;BME280;35233;55.686;37.848;2022-08-30T14:23:44;98956.00;;;29.71;31.92
47785;BME280;35233;55.686;37.848;2022-08-30T14:26:14;98954.97;;;29.72;31.79
47785;BME280;35233;55.686;37.848;2022-08-30T14:28:41;98959.78;;;29.85;31.59